Time;durP1;ratioP1;P1;durP2;ratioP2;P2;SDS_P1;SDS_P2;PMS_P1;PMS_P2;Temp;Humidity;BMP_temperature;BMP_pressure;BME280_temperature;BME280_humidity;BME280_pressure;Samples;Min_cycle;Max_cycle;Signal;HPM_P1;HPM_P2
2022/07/26 00:00:30;;;;;;;2.57;1.20;;;18.90;99.90;;;;;;5115788;28;20651;-65
2022/07/26 00:02:56;;;;;;;3.63;1.40;;;18.80;99.90;;;;;;5116019;28;20200;-65
2022/07/26 00:05:24;;;;;;;3.47;1.20;;;18.80;99.90;;;;;;5115815;28;20816;-66
2022/07/26 00:08:09;;;;;;;3.70;1.40;;;18.90;99.90;;;;;;5115236;28;20208;-66
2022/07/26 00:10:36;;;;;;;4.43;1.17;;;18.80;99.90;;;;;;5115655;28;20235;-65
2022/07/26 00:13:03;;;;;;;2.70;1.30;;;18.80;99.90;;;;;;5115582;28;20204;-65
2022/07/26 00:15:29;;;;;;;2.57;1.20;;;18.70;99.90;;;;;;5115542;28;20211;-65
2022/07/26 00:17:56;;;;;;;3.00;1.37;;;18.70;99.90;;;;;;5115039;28;20204;-65
2022/07/26 00:20:24;;;;;;;2.97;1.17;;;18.70;99.90;;;;;;5115420;28;20227;-65
2022/07/26 00:22:51;;;;;;;4.67;1.60;;;18.70;99.90;;;;;;5115322;27;20709;-65
2022/07/26 00:25:18;;;;;;;4.20;1.30;;;18.60;99.90;;;;;;5115490;28;20677;-65
2022/07/26 00:27:44;;;;;;;2.07;1.30;;;18.50;99.90;;;;;;5114971;28;20199;-65
2022/07/26 00:30:13;;;;;;;1.97;1.53;;;18.50;99.90;;;;;;5115382;28;20228;-65
2022/07/26 00:32:40;;;;;;;4.27;1.50;;;18.40;99.90;;;;;;5115024;28;20559;-63
2022/07/26 00:35:07;;;;;;;6.27;1.83;;;18.40;1.00;;;;;;5115381;28;20228;-63
2022/07/26 00:37:35;;;;;;;3.03;1.40;;;18.40;1.00;;;;;;5114930;28;20204;-63
2022/07/26 00:40:02;;;;;;;4.93;1.47;;;18.30;1.00;;;;;;5115219;27;20269;-63
2022/07/26 00:42:29;;;;;;;3.80;1.60;;;18.20;1.00;;;;;;5114943;28;20231;-63
2022/07/26 00:44:55;;;;;;;2.83;1.43;;;18.10;1.00;;;;;;5114987;28;20260;-63
2022/07/26 00:47:22;;;;;;;3.23;1.70;;;18.00;1.00;;;;;;5114620;28;20276;-64
2022/07/26 00:49:49;;;;;;;5.53;1.53;;;18.00;1.00;;;;;;5115002;28;20223;-63
2022/07/26 00:52:16;;;;;;;3.07;1.60;;;18.00;1.00;;;;;;5114909;28;20260;-63
2022/07/26 00:54:45;;;;;;;1.93;1.50;;;17.90;1.00;;;;;;5114804;28;20203;-63
2022/07/26 00:57:12;;;;;;;3.37;1.77;;;18.00;1.00;;;;;;5114204;28;20560;-63
2022/07/26 00:59:39;;;;;;;4.30;2.10;;;17.90;1.00;;;;;;5114599;28;20228;-63
2022/07/26 01:02:08;;;;;;;5.33;1.70;;;17.80;1.00;;;;;;5114937;27;20216;-63
2022/07/26 01:04:35;;;;;;;5.10;1.60;;;17.80;24.40;;;;;;5114786;28;20253;-64
2022/07/26 01:07:03;;;;;;;5.13;1.93;;;17.80;87.50;;;;;;5114245;28;20204;-63
2022/07/26 01:09:30;;;;;;;7.23;1.90;;;17.70;99.90;;;;;;5114541;28;20281;-63
2022/07/26 01:11:58;;;;;;;5.33;1.77;;;17.70;99.90;;;;;;5114465;28;20203;-63
2022/07/26 01:14:26;;;;;;;3.07;1.60;;;17.70;99.90;;;;;;5114363;28;20713;-63
2022/07/26 01:16:53;;;;;;;3.53;1.70;;;17.70;99.90;;;;;;5114347;28;20229;-63
2022/07/26 01:19:20;;;;;;;2.97;2.10;;;17.60;99.90;;;;;;5114406;28;20235;-63
2022/07/26 01:21:48;;;;;;;7.27;1.80;;;17.50;99.90;;;;;;5114261;28;20219;-63
2022/07/26 01:24:15;;;;;;;4.47;2.33;;;17.40;1.00;;;;;;5114407;28;20230;-64
2022/07/26 01:26:42;;;;;;;3.77;1.90;;;17.40;99.90;;;;;;5113953;27;20226;-64
2022/07/26 01:29:08;;;;;;;6.37;2.07;;;17.40;99.90;;;;;;5114072;28;20625;-64
2022/07/26 01:31:35;;;;;;;4.80;1.97;;;17.40;99.90;;;;;;5114294;28;20196;-63
2022/07/26 01:34:02;;;;;;;6.20;1.80;;;17.40;99.90;;;;;;5114220;28;20219;-64
2022/07/26 01:36:29;;;;;;;4.73;2.23;;;17.40;1.00;;;;;;5113627;27;20260;-64
2022/07/26 01:38:57;;;;;;;2.67;1.67;;;17.40;99.90;;;;;;5113997;28;20218;-64
2022/07/26 01:41:24;;;;;;;4.63;1.93;;;17.40;99.90;;;;;;5113553;28;20228;-64
2022/07/26 01:43:50;;;;;;;9.53;2.20;;;17.40;99.90;;;;;;5113978;28;20261;-64
2022/07/26 01:46:17;;;;;;;2.67;1.70;;;17.40;99.90;;;;;;5113769;28;20203;-64
2022/07/26 01:48:44;;;;;;;6.50;2.13;;;17.40;99.90;;;;;;5113825;28;20203;-64
2022/07/26 01:51:10;;;;;;;6.17;2.07;;;17.40;99.90;;;;;;5113613;28;20227;-64
2022/07/26 01:53:37;;;;;;;7.57;2.17;;;17.40;99.90;;;;;;5113760;28;20726;-64
2022/07/26 01:56:06;;;;;;;5.00;2.10;;;17.30;1.00;;;;;;5113226;28;20248;-64
2022/07/26 01:58:32;;;;;;;2.93;1.87;;;17.30;31.40;;;;;;5113499;28;20231;-64
2022/07/26 02:00:59;;;;;;;1.90;1.57;;;17.40;1.00;;;;;;5113765;28;20228;-64
2022/07/26 02:03:26;;;;;;;8.10;2.13;;;17.40;1.00;;;;;;5113340;28;20701;-64
2022/07/26 02:05:52;;;;;;;7.63;2.60;;;17.50;1.00;;;;;;5113353;28;20208;-63
2022/07/26 02:08:19;;;;;;;4.57;1.60;;;17.50;99.90;;;;;;5113290;28;20212;-63
2022/07/26 02:11:00;;;;;;;4.93;2.00;;;17.50;99.90;;;;;;5113416;28;20227;-64
2022/07/26 02:13:30;;;;;;;4.97;2.20;;;17.60;99.90;;;;;;5113410;28;20203;-63
2022/07/26 02:15:58;;;;;;;4.80;1.90;;;17.60;99.90;;;;;;5113111;28;20263;-64
2022/07/26 02:18:26;;;;;;;5.33;2.00;;;17.60;99.90;;;;;;5113093;28;20634;-64
2022/07/26 02:20:53;;;;;;;6.97;2.40;;;17.60;99.90;;;;;;5112610;28;20234;-66
2022/07/26 02:23:21;;;;;;;4.40;2.00;;;17.60;99.90;;;;;;5112954;28;20617;-64
2022/07/26 02:25:47;;;;;;;5.60;1.80;;;17.70;99.90;;;;;;5113172;28;20282;-64
2022/07/26 02:28:15;;;;;;;7.57;2.03;;;17.70;99.90;;;;;;5112965;28;20554;-63
2022/07/26 02:30:43;;;;;;;8.67;1.93;;;17.70;99.90;;;;;;5113000;28;20655;-64
2022/07/26 02:33:10;;;;;;;8.63;1.93;;;17.70;1.00;;;;;;5112921;28;20207;-64
2022/07/26 02:35:36;;;;;;;6.50;2.17;;;17.80;95.10;;;;;;5112610;28;20645;-64
2022/07/26 02:38:05;;;;;;;5.30;1.70;;;17.80;1.00;;;;;;5112923;28;20281;-64
2022/07/26 02:40:32;;;;;;;6.33;1.87;;;17.80;19.80;;;;;;5112808;27;20223;-64
2022/07/26 02:42:59;;;;;;;6.53;2.00;;;17.70;25.30;;;;;;5112812;28;20227;-64
2022/07/26 02:45:26;;;;;;;6.70;1.70;;;17.70;1.00;;;;;;5112748;28;20199;-64
2022/07/26 02:47:56;;;;;;;5.87;1.90;;;17.70;1.00;;;;;;5112508;28;20235;-64
2022/07/26 02:50:24;;;;;;;3.70;1.53;;;17.70;1.00;;;;;;5112693;28;20253;-64
2022/07/26 02:52:51;;;;;;;6.00;1.70;;;17.80;1.00;;;;;;5112926;28;20196;-64
2022/07/26 02:55:21;;;;;;;4.03;1.50;;;17.70;1.00;;;;;;5112842;28;20203;-64
2022/07/26 02:57:49;;;;;;;5.00;1.20;;;17.70;18.50;;;;;;5112793;28;20670;-64
2022/07/26 03:00:17;;;;;;;7.00;2.00;;;17.70;1.00;;;;;;5114037;28;20773;-64
2022/07/26 03:02:44;;;;;;;7.57;1.73;;;17.70;1.00;;;;;;5113750;28;20227;-64
2022/07/26 03:05:12;;;;;;;6.27;1.87;;;17.70;1.00;;;;;;5112475;28;20208;-63
2022/07/26 03:07:38;;;;;;;4.50;1.60;;;17.70;1.00;;;;;;5112096;28;20622;-64
2022/07/26 03:10:06;;;;;;;8.60;1.87;;;17.80;1.00;;;;;;5112487;28;20385;-64
2022/07/26 03:12:33;;;;;;;6.53;1.97;;;17.80;1.00;;;;;;5112402;28;20204;-64
2022/07/26 03:15:00;;;;;;;4.80;1.80;;;17.80;1.00;;;;;;5112356;28;20256;-64
2022/07/26 03:17:27;;;;;;;4.07;2.20;;;17.60;99.90;;;;;;5111667;28;20219;-65
2022/07/26 03:19:53;;;;;;;7.97;2.10;;;17.60;1.00;;;;;;5112023;28;20231;-64
2022/07/26 03:22:21;;;;;;;4.53;1.80;;;17.40;1.00;;;;;;5112274;28;20227;-63
2022/07/26 03:24:48;;;;;;;5.53;1.80;;;17.50;1.00;;;;;;5112542;28;20204;-65
2022/07/26 03:27:15;;;;;;;3.83;1.70;;;17.50;1.00;;;;;;5111891;28;20210;-65
2022/07/26 03:29:42;;;;;;;8.07;2.10;;;17.50;1.00;;;;;;5111950;28;20273;-65
2022/07/26 03:32:08;;;;;;;4.77;1.77;;;17.50;1.00;;;;;;5114631;28;20200;-64
2022/07/26 03:34:36;;;;;;;4.03;1.53;;;17.50;1.00;;;;;;5116457;27;20214;-65
2022/07/26 03:37:03;;;;;;;6.60;2.27;;;17.50;1.00;;;;;;5116065;28;20238;-65
2022/07/26 03:39:31;;;;;;;5.00;1.90;;;17.40;1.00;;;;;;5115835;28;20604;-65
2022/07/26 03:41:57;;;;;;;5.27;2.20;;;17.40;1.00;;;;;;5116352;28;20227;-65
2022/07/26 03:44:24;;;;;;;5.67;1.90;;;17.40;1.00;;;;;;5116058;28;20203;-65
2022/07/26 03:46:51;;;;;;;9.43;3.33;;;17.30;1.00;;;;;;5116189;28;20207;-64
2022/07/26 03:49:17;;;;;;;6.87;2.90;;;17.30;9.10;;;;;;5116354;28;20295;-64
2022/07/26 03:51:44;;;;;;;8.93;2.53;;;17.30;25.30;;;;;;5116229;27;20604;-65
2022/07/26 03:54:11;;;;;;;9.33;2.60;;;17.30;44.80;;;;;;5116156;28;20204;-65
2022/07/26 03:56:38;;;;;;;8.57;3.87;;;17.30;55.90;;;;;;5115630;28;20203;-65
2022/07/26 03:59:07;;;;;;;5.97;3.17;;;17.30;61.60;;;;;;5115735;28;20208;-65
2022/07/26 04:01:34;;;;;;;7.13;2.53;;;17.30;67.20;;;;;;5116025;28;20207;-64
2022/07/26 04:04:01;;;;;;;7.40;2.93;;;17.30;83.00;;;;;;5116034;28;20261;-65
2022/07/26 04:06:28;;;;;;;5.20;2.77;;;17.30;88.00;;;;;;5115598;28;20203;-65
2022/07/26 04:08:55;;;;;;;6.07;2.77;;;17.20;94.60;;;;;;5115688;28;20204;-65
2022/07/26 04:11:22;;;;;;;4.93;2.43;;;17.20;98.80;;;;;;5115612;27;20206;-64
2022/07/26 04:13:50;;;;;;;7.40;2.80;;;17.20;99.90;;;;;;5115863;28;20196;-65
2022/07/26 04:16:17;;;;;;;6.30;2.67;;;17.10;99.90;;;;;;5115388;28;20248;-65
2022/07/26 04:18:43;;;;;;;5.43;2.77;;;17.10;99.90;;;;;;5115410;28;20698;-64
2022/07/26 04:21:10;;;;;;;5.23;3.13;;;17.10;99.90;;;;;;5115295;28;20283;-66
2022/07/26 04:23:37;;;;;;;8.13;2.73;;;17.10;99.90;;;;;;5115410;28;20272;-66
2022/07/26 04:26:04;;;;;;;7.97;2.77;;;17.10;99.90;;;;;;5115107;28;20623;-65
2022/07/26 04:28:31;;;;;;;5.33;2.50;;;17.10;99.90;;;;;;5115304;28;20681;-66
2022/07/26 04:31:00;;;;;;;10.63;3.07;;;17.00;99.90;;;;;;5115267;28;20284;-63
2022/07/26 04:33:27;;;;;;;6.90;3.10;;;16.90;99.90;;;;;;5115410;28;20203;-66
2022/07/26 04:35:54;;;;;;;5.43;3.00;;;16.80;99.90;;;;;;5114891;28;20207;-66
2022/07/26 04:38:21;;;;;;;8.97;3.10;;;16.90;99.90;;;;;;5115095;27;20731;-64
2022/07/26 04:40:49;;;;;;;9.50;2.93;;;16.90;99.90;;;;;;5112918;28;20805;-64
2022/07/26 04:43:17;;;;;;;8.87;3.50;;;16.80;99.90;;;;;;5113549;28;20223;-64
2022/07/26 04:45:44;;;;;;;6.00;3.07;;;16.80;99.90;;;;;;5115111;28;20213;-66
2022/07/26 04:48:12;;;;;;;7.70;2.80;;;16.90;99.90;;;;;;5114542;28;20264;-65
2022/07/26 04:50:39;;;;;;;8.27;2.90;;;16.90;99.90;;;;;;5115089;27;20253;-66
2022/07/26 04:53:07;;;;;;;7.73;2.93;;;16.80;99.90;;;;;;5114288;28;20211;-65
2022/07/26 04:55:34;;;;;;;7.73;3.10;;;16.80;99.90;;;;;;5115003;28;20549;-64
2022/07/26 04:58:01;;;;;;;7.40;3.10;;;16.80;99.90;;;;;;5114247;28;20240;-64
2022/07/26 05:00:28;;;;;;;5.63;2.90;;;16.70;99.90;;;;;;5114791;28;20304;-64
2022/07/26 05:02:57;;;;;;;11.73;2.80;;;16.60;99.90;;;;;;5114616;28;20223;-63
2022/07/26 05:05:31;;;;;;;8.03;2.87;;;16.60;99.90;;;;;;5114376;28;20775;-64
2022/07/26 05:08:01;;;;;;;5.07;2.63;;;16.60;99.90;;;;;;5114487;28;20191;-64
2022/07/26 05:10:29;;;;;;;7.57;3.23;;;16.70;99.90;;;;;;5114379;28;20231;-64
2022/07/26 05:12:56;;;;;;;7.43;3.20;;;16.70;99.90;;;;;;5114590;28;20207;-64
2022/07/26 05:15:23;;;;;;;5.30;2.80;;;16.70;99.90;;;;;;5114304;27;20203;-64
2022/07/26 05:17:49;;;;;;;9.50;3.20;;;16.70;99.90;;;;;;5114134;28;20207;-64
2022/07/26 05:20:17;;;;;;;5.50;2.93;;;16.70;99.90;;;;;;5114126;28;20355;-65
2022/07/26 05:22:45;;;;;;;6.27;2.83;;;16.70;99.90;;;;;;5113895;28;20334;-65
2022/07/26 05:25:12;;;;;;;7.20;3.10;;;16.70;99.90;;;;;;5113907;28;20203;-66
2022/07/26 05:27:40;;;;;;;8.47;2.90;;;16.70;99.90;;;;;;5113741;28;20208;-67
2022/07/26 05:30:08;;;;;;;8.70;3.07;;;16.70;99.90;;;;;;5113981;28;20224;-66
2022/07/26 05:32:35;;;;;;;7.47;2.97;;;16.70;99.90;;;;;;5113549;28;20261;-68
2022/07/26 05:35:02;;;;;;;7.50;3.10;;;16.70;99.90;;;;;;5113937;28;20206;-66
2022/07/26 05:37:28;;;;;;;10.33;3.20;;;16.80;99.90;;;;;;5113205;28;20673;-67
2022/07/26 05:39:56;;;;;;;9.70;3.10;;;16.80;99.90;;;;;;5113869;28;20223;-66
2022/07/26 05:42:24;;;;;;;7.23;3.03;;;16.80;99.90;;;;;;5113160;28;20208;-67
2022/07/26 05:44:51;;;;;;;7.43;3.17;;;16.80;99.90;;;;;;5113655;28;20688;-68
2022/07/26 05:47:18;;;;;;;6.30;3.07;;;16.80;99.90;;;;;;5112828;28;20735;-65
2022/07/26 05:49:44;;;;;;;7.00;2.77;;;16.90;99.90;;;;;;5113027;28;20257;-66
2022/07/26 05:52:11;;;;;;;10.30;3.70;;;16.90;99.90;;;;;;5113628;28;20623;-67
2022/07/26 05:54:38;;;;;;;8.83;3.10;;;17.00;99.90;;;;;;5112435;28;20257;-65
2022/07/26 05:57:06;;;;;;;8.27;2.90;;;16.90;99.90;;;;;;5113164;28;20256;-67
2022/07/26 05:59:32;;;;;;;9.57;3.07;;;16.90;99.90;;;;;;5113044;28;20228;-66
2022/07/26 06:01:59;;;;;;;8.77;3.20;;;16.90;99.90;;;;;;5113262;28;20206;-66
2022/07/26 06:04:26;;;;;;;7.73;3.03;;;16.90;99.90;;;;;;5113208;28;20317;-67
2022/07/26 06:06:53;;;;;;;10.63;3.23;;;17.10;99.90;;;;;;5113014;28;20204;-67
2022/07/26 06:09:20;;;;;;;10.03;2.80;;;17.10;99.90;;;;;;5113188;28;20282;-66
2022/07/26 06:11:46;;;;;;;6.30;2.77;;;17.10;99.90;;;;;;5113406;28;20211;-67
2022/07/26 06:14:14;;;;;;;10.67;3.50;;;17.20;99.90;;;;;;5112918;28;20200;-66
2022/07/26 06:16:41;;;;;;;8.70;3.20;;;17.20;99.90;;;;;;5112729;28;20552;-68
2022/07/26 06:19:08;;;;;;;7.77;3.10;;;17.30;99.90;;;;;;5113262;28;20211;-67
2022/07/26 06:21:34;;;;;;;8.33;3.40;;;17.40;99.90;;;;;;5112555;28;20210;-67
2022/07/26 06:24:01;;;;;;;7.47;2.63;;;17.50;99.90;;;;;;5113375;28;20642;-68
2022/07/26 06:26:28;;;;;;;7.80;3.60;;;17.70;99.90;;;;;;5112468;27;20253;-67
2022/07/26 06:28:55;;;;;;;11.53;3.97;;;17.70;99.90;;;;;;5112710;28;20204;-66
2022/07/26 06:31:23;;;;;;;15.10;4.20;;;17.80;99.90;;;;;;5112714;28;20218;-67
2022/07/26 06:33:50;;;;;;;9.40;3.23;;;17.80;99.90;;;;;;5103935;28;20630;-67
2022/07/26 06:36:17;;;;;;;11.00;4.50;;;17.80;99.90;;;;;;5104252;28;20203;-67
2022/07/26 06:38:43;;;;;;;10.33;4.93;;;17.90;99.90;;;;;;5120501;28;20227;-69
2022/07/26 06:41:10;;;;;;;10.50;4.90;;;18.00;99.90;;;;;;5121786;28;20227;-66
2022/07/26 06:43:37;;;;;;;13.77;5.17;;;18.10;99.90;;;;;;5115221;28;20227;-68
2022/07/26 06:46:03;;;;;;;12.60;5.80;;;18.20;99.90;;;;;;5111882;28;20203;-67
2022/07/26 06:48:32;;;;;;;10.80;5.80;;;18.30;99.90;;;;;;5111883;28;20283;-67
2022/07/26 06:50:58;;;;;;;12.37;5.73;;;18.10;99.90;;;;;;5112145;27;20223;-67
2022/07/26 06:53:25;;;;;;;15.17;6.10;;;17.90;99.90;;;;;;5111661;28;20199;-66
2022/07/26 06:55:52;;;;;;;11.43;6.90;;;18.00;99.90;;;;;;5111728;28;20237;-67
2022/07/26 06:58:18;;;;;;;14.90;7.17;;;18.00;99.90;;;;;;5111888;28;20211;-65
2022/07/26 07:00:45;;;;;;;12.57;6.80;;;18.10;99.90;;;;;;5110041;28;20223;-64
2022/07/26 07:03:12;;;;;;;12.67;6.83;;;18.00;99.90;;;;;;5111940;28;20234;-66
2022/07/26 07:05:41;;;;;;;12.90;6.37;;;18.10;99.90;;;;;;5111285;28;20276;-67
2022/07/26 07:08:07;;;;;;;10.93;6.37;;;18.10;99.90;;;;;;5111527;28;20825;-66
2022/07/26 07:10:34;;;;;;;13.37;6.83;;;18.20;99.90;;;;;;5111216;28;20227;-67
2022/07/26 07:13:01;;;;;;;14.97;6.50;;;18.30;99.90;;;;;;5112159;28;20211;-67
2022/07/26 07:15:27;;;;;;;15.17;6.07;;;18.50;99.90;;;;;;5111935;28;20225;-67
2022/07/26 07:17:54;;;;;;;13.13;5.83;;;18.60;99.90;;;;;;5110944;28;20211;-67
2022/07/26 07:20:21;;;;;;;11.90;6.00;;;18.60;99.90;;;;;;5111559;28;20239;-67
2022/07/26 07:22:49;;;;;;;10.80;6.20;;;18.60;99.90;;;;;;5111317;28;20208;-67
2022/07/26 07:25:16;;;;;;;11.07;5.63;;;18.60;99.90;;;;;;5111583;28;20248;-65
2022/07/26 07:27:43;;;;;;;14.23;6.57;;;18.60;99.90;;;;;;5110846;28;20210;-67
2022/07/26 07:30:11;;;;;;;12.70;6.00;;;18.80;99.90;;;;;;5111586;28;20231;-68
2022/07/26 07:32:37;;;;;;;14.73;6.30;;;19.00;99.90;;;;;;5111573;28;20207;-68
2022/07/26 07:35:05;;;;;;;11.63;5.40;;;19.30;99.90;;;;;;5111309;28;20596;-66
2022/07/26 07:37:34;;;;;;;11.03;5.67;;;19.40;99.90;;;;;;5110803;28;20210;-66
2022/07/26 07:40:03;;;;;;;12.00;5.90;;;19.60;99.90;;;;;;5111129;28;20235;-66
2022/07/26 07:42:30;;;;;;;15.43;6.00;;;19.70;95.50;;;;;;5111677;28;20203;-66
2022/07/26 07:44:56;;;;;;;13.70;5.70;;;20.00;95.70;;;;;;5111096;28;20223;-66
2022/07/26 07:47:23;;;;;;;12.97;6.50;;;20.10;71.80;;;;;;5110692;28;20212;-66
2022/07/26 07:49:50;;;;;;;10.07;6.53;;;20.10;70.90;;;;;;5111405;28;20309;-66
2022/07/26 07:52:16;;;;;;;18.37;7.47;;;20.10;52.70;;;;;;5111064;28;20210;-66
2022/07/26 07:54:43;;;;;;;9.57;7.63;;;20.20;59.60;;;;;;5111758;28;20200;-66
2022/07/26 07:57:11;;;;;;;13.80;8.07;;;20.20;39.60;;;;;;5110998;28;20211;-70
2022/07/26 07:59:38;;;;;;;12.77;8.40;;;20.10;24.30;;;;;;5111024;28;20227;-66
2022/07/26 08:02:05;;;;;;;16.07;7.73;;;20.20;47.60;;;;;;5111092;28;20366;-68
2022/07/26 08:04:31;;;;;;;15.43;7.73;;;20.30;35.60;;;;;;5111003;28;20224;-66
2022/07/26 08:06:58;;;;;;;11.03;7.57;;;20.50;38.10;;;;;;5110410;28;20739;-65
2022/07/26 08:09:25;;;;;;;13.83;8.03;;;20.80;38.90;;;;;;5110943;28;20351;-69
2022/07/26 08:11:51;;;;;;;20.00;8.80;;;21.00;28.80;;;;;;5111159;28;20207;-65
2022/07/26 08:14:20;;;;;;;11.90;8.17;;;21.00;23.70;;;;;;5110934;28;20622;-65
2022/07/26 08:16:46;;;;;;;13.40;9.13;;;21.10;14.60;;;;;;5110780;28;20203;-65
2022/07/26 08:19:13;;;;;;;18.00;9.33;;;21.10;7.20;;;;;;5114551;28;20218;-66
2022/07/26 08:21:41;;;;;;;16.23;8.60;;;21.10;6.60;;;;;;5115008;28;20223;-67
2022/07/26 08:24:09;;;;;;;14.63;8.07;;;21.20;18.30;;;;;;5114644;28;20796;-66
2022/07/26 08:26:36;;;;;;;16.73;8.47;;;21.30;1.00;;;;;;5114143;28;20581;-64
2022/07/26 08:29:03;;;;;;;15.03;9.43;;;21.10;1.00;;;;;;5115175;28;20734;-66
2022/07/26 08:31:31;;;;;;;15.00;9.27;;;21.10;1.00;;;;;;5114202;28;20293;-66
2022/07/26 08:33:58;;;;;;;13.37;7.70;;;21.10;1.00;;;;;;5115078;28;20204;-66
2022/07/26 08:36:24;;;;;;;11.80;8.27;;;21.30;4.20;;;;;;5113769;28;20207;-66
2022/07/26 08:38:51;;;;;;;12.90;8.13;;;21.40;1.00;;;;;;5114421;28;20261;-66
2022/07/26 08:41:18;;;;;;;12.13;7.90;;;21.70;1.00;;;;;;5114546;28;20223;-65
2022/07/26 08:43:45;;;;;;;10.97;7.37;;;21.80;1.00;;;;;;5113998;28;20893;-66
2022/07/26 08:46:12;;;;;;;10.57;6.83;;;22.00;1.00;;;;;;5113778;28;20216;-67
2022/07/26 08:48:40;;;;;;;9.53;7.20;;;22.00;99.90;;;;;;5114277;28;20248;-70
2022/07/26 08:51:09;;;;;;;9.43;7.53;;;21.90;99.90;;;;;;5114363;28;20224;-67
2022/07/26 08:53:37;;;;;;;16.40;8.57;;;21.30;99.90;;;;;;5113797;28;20196;-67
2022/07/26 08:56:04;;;;;;;14.20;7.87;;;21.20;99.90;;;;;;5113767;28;20298;-65
2022/07/26 08:58:33;;;;;;;11.13;7.00;;;21.10;99.90;;;;;;5113992;28;20207;-65
2022/07/26 09:01:07;;;;;;;9.07;6.50;;;21.10;99.90;;;;;;5113691;28;20227;-66
2022/07/26 09:03:36;;;;;;;12.00;6.43;;;21.10;99.90;;;;;;5112341;28;20207;-67
2022/07/26 09:06:16;;;;;;;11.50;6.80;;;21.10;99.90;;;;;;5112187;28;20269;-66
2022/07/26 09:08:43;;;;;;;6.90;5.57;;;21.00;99.90;;;;;;5113838;28;20214;-65
2022/07/26 09:11:30;;;;;;;11.30;6.07;;;20.90;99.90;;;;;;5111736;27;20228;-65
2022/07/26 09:14:00;;;;;;;11.33;5.37;;;20.70;99.90;;;;;;5112431;28;20195;-66
2022/07/26 09:16:27;;;;;;;10.40;6.20;;;20.60;99.90;;;;;;5110836;28;20808;-65
2022/07/26 09:18:54;;;;;;;9.03;5.20;;;20.50;99.90;;;;;;5113658;28;20219;-67
2022/07/26 09:21:29;;;;;;;21.17;6.10;;;20.40;99.90;;;;;;5113912;28;20231;-66
2022/07/26 09:23:57;;;;;;;11.90;5.90;;;20.20;1.00;;;;;;5113267;28;20215;-67
2022/07/26 09:26:23;;;;;;;9.90;5.70;;;20.00;1.00;;;;;;5112900;28;20619;-67
2022/07/26 09:29:04;;;;;;;9.70;6.20;;;20.10;1.00;;;;;;5111628;28;20590;-65
2022/07/26 09:31:30;;;;;;;7.97;5.80;;;20.20;22.10;;;;;;5113125;28;20203;-65
2022/07/26 09:33:58;;;;;;;10.27;5.23;;;20.30;14.50;;;;;;5113387;28;20584;-66
2022/07/26 09:36:26;;;;;;;7.37;4.67;;;20.60;23.40;;;;;;5112652;28;20207;-66
2022/07/26 09:38:57;;;;;;;5.93;4.13;;;21.00;1.00;;;;;;5113272;28;20208;-67
2022/07/26 09:41:26;;;;;;;7.53;3.83;;;21.40;1.00;;;;;;5113310;28;20203;-66
2022/07/26 09:43:54;;;;;;;8.53;4.73;;;21.20;1.00;;;;;;5113269;28;20547;-67
2022/07/26 09:46:22;;;;;;;7.70;3.80;;;21.10;99.90;;;;;;5112485;28;20207;-67
2022/07/26 09:48:49;;;;;;;9.43;4.30;;;20.90;99.90;;;;;;5112914;28;20640;-67
2022/07/26 09:51:33;;;;;;;9.10;4.07;;;20.70;99.90;;;;;;5113190;28;20336;-67
2022/07/26 09:54:02;;;;;;;10.60;4.30;;;20.40;99.90;;;;;;5113328;28;20622;-67
2022/07/26 09:56:41;;;;;;;8.60;4.90;;;20.10;99.90;;;;;;5112269;28;20203;-65
2022/07/26 09:59:09;;;;;;;12.33;5.27;;;19.80;1.00;;;;;;5112913;27;20203;-64
2022/07/26 10:01:36;;;;;;;9.47;4.43;;;19.90;1.00;;;;;;5112171;27;20211;-68
2022/07/26 10:04:02;;;;;;;12.40;5.30;;;20.00;1.00;;;;;;5113002;28;20264;-68
2022/07/26 10:06:29;;;;;;;13.33;6.23;;;20.00;1.00;;;;;;5112223;28;20208;-68
2022/07/26 10:08:57;;;;;;;7.37;5.90;;;20.30;45.00;;;;;;5112642;28;20254;-68
2022/07/26 10:11:26;;;;;;;20.53;7.23;;;20.70;41.70;;;;;;5113982;28;20562;-68
2022/07/26 10:13:53;;;;;;;9.20;6.00;;;21.10;99.90;;;;;;5112322;28;20253;-68
2022/07/26 10:16:37;;;;;;;10.17;7.10;;;21.20;15.30;;;;;;5114724;27;20233;-69
2022/07/26 10:19:04;;;;;;;16.20;7.43;;;21.20;99.90;;;;;;5118164;28;20211;-66
2022/07/26 10:21:31;;;;;;;9.17;6.77;;;21.30;24.50;;;;;;5119755;28;20208;-65
2022/07/26 10:23:59;;;;;;;12.03;7.33;;;21.30;71.20;;;;;;5112573;28;20576;-66
2022/07/26 10:26:39;;;;;;;9.50;6.87;;;21.40;71.00;;;;;;5111599;28;20200;-65
2022/07/26 10:29:30;;;;;;;12.40;6.73;;;21.50;99.90;;;;;;5112189;28;20238;-64
2022/07/26 10:32:16;;;;;;;11.83;6.57;;;21.60;1.00;;;;;;5096789;28;20627;-66
2022/07/26 10:34:43;;;;;;;7.50;6.00;;;21.70;1.00;;;;;;5112010;28;20692;-66
2022/07/26 10:37:20;;;;;;;10.57;6.17;;;21.70;1.00;;;;;;5111626;28;20276;-68
2022/07/26 10:39:47;;;;;;;10.83;6.20;;;21.60;1.00;;;;;;5111460;28;20394;-66
2022/07/26 10:42:15;;;;;;;8.50;6.23;;;21.40;1.00;;;;;;5111889;28;20203;-67
2022/07/26 10:44:44;;;;;;;12.03;6.87;;;21.20;1.00;;;;;;5109769;28;20227;-64
2022/07/26 10:47:14;;;;;;;7.27;4.90;;;20.90;1.00;;;;;;5110954;28;20235;-67
2022/07/26 10:49:43;;;;;;;7.70;4.93;;;20.30;1.00;;;;;;5111892;28;20219;-66
2022/07/26 10:52:16;;;;;;;5.70;4.87;;;20.20;1.00;;;;;;5111935;28;20658;-65
2022/07/26 10:55:07;;;;;;;8.63;4.53;;;19.80;1.00;;;;;;5111877;28;20234;-68
2022/07/26 10:57:37;;;;;;;5.33;4.30;;;19.50;10.20;;;;;;5110867;28;20207;-67
2022/07/26 11:00:09;;;;;;;6.27;3.93;;;19.50;99.90;;;;;;5111702;28;20246;-66
2022/07/26 11:02:36;;;;;;;6.27;5.00;;;19.30;99.90;;;;;;5111737;28;20207;-68
2022/07/26 11:05:11;;;;;;;5.53;5.00;;;19.40;99.90;;;;;;5111601;28;20222;-68
2022/07/26 11:07:54;;;;;;;5.37;4.83;;;19.30;99.90;;;;;;5110868;28;20584;-67
2022/07/26 11:10:26;;;;;;;4.63;4.20;;;19.30;99.90;;;;;;5111286;28;20223;-68
2022/07/26 11:13:03;;;;;;;4.80;4.40;;;19.40;99.90;;;;;;5111832;28;20650;-66
2022/07/26 11:15:30;;;;;;;7.57;5.73;;;19.50;99.90;;;;;;5111299;28;20199;-66
2022/07/26 11:18:20;;;;;;;6.73;5.27;;;19.40;99.90;;;;;;5111117;28;20207;-67
2022/07/26 11:20:49;;;;;;;5.97;4.70;;;19.30;99.90;;;;;;5111399;28;20249;-67
2022/07/26 11:23:24;;;;;;;4.87;4.37;;;19.40;99.90;;;;;;5111620;28;20322;-66
2022/07/26 11:26:08;;;;;;;6.43;4.20;;;19.40;99.90;;;;;;5111591;28;20226;-67
2022/07/26 11:28:58;;;;;;;4.83;3.80;;;19.40;99.90;;;;;;5111458;28;20299;-67
2022/07/26 11:31:33;;;;;;;3.17;2.70;;;19.50;99.90;;;;;;5107022;28;20207;-66
2022/07/26 11:34:00;;;;;;;3.33;2.70;;;19.60;99.90;;;;;;5111277;28;20294;-66
2022/07/26 11:36:35;;;;;;;3.93;2.33;;;19.80;99.90;;;;;;5110692;28;20200;-66
2022/07/26 11:39:03;;;;;;;3.43;1.80;;;20.20;99.90;;;;;;5105900;28;20231;-66
2022/07/26 11:41:31;;;;;;;2.43;1.50;;;20.50;81.80;;;;;;5108585;28;20215;-66
2022/07/26 11:44:00;;;;;;;2.07;1.60;;;20.60;1.00;;;;;;5108376;28;20323;-66
2022/07/26 11:46:36;;;;;;;3.00;1.70;;;20.80;1.00;;;;;;5109685;28;20227;-66
2022/07/26 11:49:05;;;;;;;2.83;1.90;;;20.70;1.00;;;;;;5109145;28;20252;-67
2022/07/26 11:51:32;;;;;;;1.90;1.70;;;20.60;1.00;;;;;;5109401;28;20298;-67
2022/07/26 11:54:03;;;;;;;3.43;1.90;;;20.40;1.00;;;;;;5112957;28;20290;-66
2022/07/26 11:56:31;;;;;;;1.70;1.60;;;20.50;1.00;;;;;;5112237;28;20674;-66
2022/07/26 11:59:00;;;;;;;3.67;2.30;;;20.60;1.00;;;;;;5113717;28;20210;-68
2022/07/26 12:01:27;;;;;;;2.37;1.87;;;20.20;1.00;;;;;;5113784;28;20195;-68
2022/07/26 12:03:55;;;;;;;4.67;2.13;;;20.00;1.00;;;;;;5113665;28;20211;-66
2022/07/26 12:06:24;;;;;;;2.73;1.97;;;19.80;99.90;;;;;;5113039;28;20258;-66
2022/07/26 12:08:53;;;;;;;1.97;1.70;;;19.60;99.90;;;;;;5113325;28;20279;-65
2022/07/26 12:11:20;;;;;;;1.70;1.60;;;19.80;1.00;;;;;;5115112;28;20224;-68
2022/07/26 12:13:56;;;;;;;2.57;1.50;;;19.50;99.90;;;;;;5114398;28;20214;-65
2022/07/26 12:16:44;;;;;;;0.90;0.80;;;19.80;99.90;;;;;;5114497;28;20244;-70
2022/07/26 12:19:28;;;;;;;0.90;0.90;;;20.00;1.00;;;;;;5114983;28;20215;-67
2022/07/26 12:21:57;;;;;;;1.60;1.17;;;19.90;1.00;;;;;;5114994;28;20204;-67
2022/07/26 12:24:46;;;;;;;1.67;0.90;;;20.00;1.00;;;;;;5114724;28;20233;-65
2022/07/26 12:27:15;;;;;;;0.90;0.60;;;20.20;1.00;;;;;;5114124;28;20211;-66
2022/07/26 12:29:44;;;;;;;2.30;0.63;;;20.50;1.00;;;;;;5114745;27;20223;-66
2022/07/26 12:32:14;;;;;;;1.43;0.50;;;20.60;1.00;;;;;;5114625;28;20215;-68
2022/07/26 12:34:54;;;;;;;1.07;0.70;;;20.40;1.00;;;;;;5115017;28;20191;-69
2022/07/26 12:37:21;;;;;;;0.93;0.70;;;20.30;1.00;;;;;;5113563;28;20229;-67
2022/07/26 12:40:03;;;;;;;1.07;0.80;;;20.40;1.00;;;;;;5113794;28;20340;-67
2022/07/26 12:42:31;;;;;;;2.63;0.90;;;20.40;1.00;;;;;;5114236;28;20216;-67
2022/07/26 12:44:59;;;;;;;2.03;0.97;;;20.50;1.00;;;;;;5114151;28;20223;-67
2022/07/26 12:47:28;;;;;;;1.50;0.90;;;20.60;1.00;;;;;;5114554;27;20196;-66
2022/07/26 12:49:55;;;;;;;2.00;0.80;;;20.50;1.00;;;;;;5114945;28;20223;-67
2022/07/26 12:52:23;;;;;;;1.27;1.03;;;20.80;1.00;;;;;;5114455;28;20204;-66
2022/07/26 12:54:52;;;;;;;1.10;1.00;;;21.00;1.00;;;;;;5114337;27;20204;-65